Terminal Aerodrome Forecast
Issued by NWS

Home | Current Version | Previous Version | Text Only | Print | Product List | Glossary On
Versions: 1 2 3 4 5 6 7 8 9 10 11 12 13 14 15 16 17
000
FTUS41 KPHI 191724
TAFPNE
TAF
KPNE 191724Z 1918/2018 10012KT P6SM OVC250
     FM200200 10015KT P6SM OVC050
     FM200400 09017G27KT 6SM -SHRA OVC020
     FM200600 09017G27KT 2SM -RA BR OVC008 WS020/13055KT
     FM201500 15012KT 6SM -SHRA BR OVC012=

USA.gov is the U.S. government's official web portal to all federal, state and local government web resources and services.